AYPY

Port Moresby Jacksons International Airport

Port Moresby, Papua New Guinea

AYPY 192100Z 00000KT 9999 FEW010 BKN040 OVC280 25/24 Q1010

Observed Flight Rules
Oct-19 @ 21:00 UTC (15 hours ago)
 
Visual Flight Rules
Wind Visibility Clouds
Calm 10,000+ meters
  • Few at 1,000' AGL
  • Broken at 4,000' AGL
  • Overcast at 28,000' AGL
Temperatures Readings
Current 25°C / 77°F
Dewpoint 24°C / 75°F
Humidity 94%
Altimeter 29.82" Hg
Pressure 1010 hPa
Elevation 47
Observed Flight Rules
Oct-19 @ 21:00 UTC
(15 hours ago)
 
VFR
Wind Visibility
Calm 10,000+ meters
Clouds
  • Few at 1,000' AGL
  • Broken at 4,000' AGL
  • Overcast at 28,000' AGL
Temperature Dewpoint
25°C / 77°F 24°C / 75°F
Humidity Altimeter Pressure
94% 29.82" Hg 1010 hPa